Tracy, Iowa
Current Conditions -  °F | °C
As of 5:15 AM on Saturday 25 Oct 2014 (Local Time) from KPEA Reporting Station
Clear Clear  
Wind Chill: 51°   Ceiling: Unl
Heat Index: 51°   Visibility: 7mi
Dew Point: 51°   Wind: 6mph
Humidity: 99%   Direction: 310°NW
Pressure: 30.01"   Gusts: NA
Location:  41.28°N, 92.88°W
Report Text: KPEA 251015Z AUTO 31005KT 7SM CLR 11/11 A3001 RMK AO2 T01060105
Loading
Personal Weather Stations






























Interactive Weather Map
Tropical Storm Tracking
New forecast layout! Learn more

10-Day Weather Forecast

Advertisements
Track Severe Weather on mobile